Time;durP1;ratioP1;P1;durP2;ratioP2;P2;SDS_P1;SDS_P2;PMS_P1;PMS_P2;Temp;Humidity;BMP_temperature;BMP_pressure;BME280_temperature;BME280_humidity;BME280_pressure;Samples;Min_cycle;Max_cycle;Signal;HPM_P1;HPM_P2
2023/08/12 00:00:37;;;;;;;7.65;4.82;;;19.80;99.90;;;;;;5085534;28;20142;-75
2023/08/12 00:03:03;;;;;;;8.15;4.78;;;19.80;99.90;;;;;;5080650;28;20172;-75
2023/08/12 00:05:29;;;;;;;6.57;4.68;;;19.80;99.90;;;;;;5120069;27;20039;-75
2023/08/12 00:07:55;;;;;;;5.47;4.45;;;19.70;99.90;;;;;;5069053;28;20035;-75
2023/08/12 00:10:21;;;;;;;6.30;4.20;;;19.70;99.90;;;;;;5079912;28;20073;-75
2023/08/12 00:12:47;;;;;;;7.38;4.25;;;19.70;99.90;;;;;;5120581;27;20047;-75
2023/08/12 00:15:13;;;;;;;6.78;4.30;;;19.70;99.90;;;;;;5081156;28;20051;-75
2023/08/12 00:17:41;;;;;;;6.68;3.90;;;19.70;99.90;;;;;;5087111;28;20505;-75
2023/08/12 00:20:10;;;;;;;6.28;3.95;;;19.70;99.90;;;;;;5085332;28;20379;-75
2023/08/12 00:22:40;;;;;;;8.27;4.05;;;19.70;99.90;;;;;;5087259;28;20056;-74
2023/08/12 00:25:07;;;;;;;6.75;4.43;;;19.70;99.90;;;;;;5067843;28;21019;-74
2023/08/12 00:27:38;;;;;;;6.25;4.10;;;19.70;99.90;;;;;;5086431;28;20043;-75
2023/08/12 00:30:05;;;;;;;6.50;4.18;;;19.60;99.90;;;;;;5112977;27;20036;-75
2023/08/12 00:32:31;;;;;;;7.32;5.22;;;19.60;99.90;;;;;;5118870;27;20061;-74
2023/08/12 00:34:56;;;;;;;7.10;4.80;;;19.60;99.90;;;;;;5085335;28;20414;-75
2023/08/12 00:37:22;;;;;;;7.50;4.78;;;19.60;99.90;;;;;;5083544;28;20114;-75
2023/08/12 00:39:51;;;;;;;7.20;5.30;;;19.60;99.90;;;;;;5101102;28;20150;-75
2023/08/12 00:42:17;;;;;;;8.20;5.57;;;19.50;99.90;;;;;;5084334;27;20036;-75
2023/08/12 00:44:42;;;;;;;7.47;5.53;;;19.50;99.90;;;;;;5068116;28;20512;-76
2023/08/12 00:47:08;;;;;;;7.45;5.88;;;19.50;99.90;;;;;;5078321;28;20575;-75
2023/08/12 00:49:36;;;;;;;9.00;6.22;;;19.50;99.90;;;;;;5069305;28;20058;-75
2023/08/12 00:52:05;;;;;;;8.80;7.00;;;19.50;99.90;;;;;;5081174;28;20114;-75
2023/08/12 00:54:33;;;;;;;8.00;6.30;;;19.50;99.90;;;;;;5064896;28;20494;-75
2023/08/12 00:56:59;;;;;;;8.65;6.90;;;19.40;99.90;;;;;;5068035;28;20045;-74
2023/08/12 00:59:26;;;;;;;9.50;6.80;;;19.50;99.90;;;;;;5098787;28;20043;-76
2023/08/12 01:01:51;;;;;;;10.68;7.35;;;19.50;99.90;;;;;;5085390;28;20059;-75
2023/08/12 01:04:17;;;;;;;11.43;8.32;;;19.40;99.90;;;;;;5065159;28;20048;-75
2023/08/12 01:06:43;;;;;;;13.20;8.50;;;19.40;99.90;;;;;;5086402;28;20039;-76
2023/08/12 01:09:09;;;;;;;11.77;8.30;;;19.40;99.90;;;;;;5082779;28;20059;-76
2023/08/12 01:12:01;;;;;;;11.88;8.88;;;19.30;99.90;;;;;;5085646;28;20449;-76
2023/08/12 01:14:55;;;;;;;14.32;9.90;;;19.30;99.90;;;;;;5064367;28;20147;-76
2023/08/12 01:17:21;;;;;;;10.93;9.07;;;19.30;99.90;;;;;;5079542;28;20103;-76
2023/08/12 01:19:48;;;;;;;11.45;9.25;;;19.30;99.90;;;;;;5100850;28;20050;-75
2023/08/12 01:22:16;;;;;;;14.15;11.20;;;19.30;99.90;;;;;;5080707;28;20047;-76
2023/08/12 01:24:45;;;;;;;12.18;10.90;;;19.30;99.90;;;;;;5099621;28;20050;-76
2023/08/12 01:27:12;;;;;;;15.45;11.98;;;19.30;99.90;;;;;;5060182;28;20040;-76
2023/08/12 01:29:42;;;;;;;13.02;10.20;;;19.30;99.90;;;;;;5118516;27;20100;-75
2023/08/12 01:32:40;;;;;;;18.17;12.48;;;19.20;99.90;;;;;;5081806;28;20036;-75
2023/08/12 01:35:30;;;;;;;12.60;10.65;;;19.20;99.90;;;;;;5067257;28;20059;-76
2023/08/12 01:37:58;;;;;;;12.32;9.73;;;19.20;99.90;;;;;;5083585;28;20058;-75
2023/08/12 01:40:25;;;;;;;13.45;11.30;;;19.20;99.90;;;;;;5066123;28;20187;-76
2023/08/12 01:42:52;;;;;;;15.95;11.85;;;19.10;99.90;;;;;;5064788;28;20096;-76
2023/08/12 01:45:19;;;;;;;16.50;14.00;;;19.20;99.90;;;;;;5084251;28;20394;-75
2023/08/12 01:47:45;;;;;;;15.82;12.82;;;19.10;99.90;;;;;;5081418;28;20035;-75
2023/08/12 01:50:11;;;;;;;11.95;10.70;;;19.20;99.90;;;;;;5083025;28;20048;-75
2023/08/12 01:52:36;;;;;;;14.07;11.57;;;19.10;99.90;;;;;;5083105;28;20051;-76
2023/08/12 01:55:03;;;;;;;13.32;11.60;;;19.10;99.90;;;;;;5082759;28;20050;-75
2023/08/12 01:57:28;;;;;;;13.57;10.80;;;19.10;99.90;;;;;;5100706;28;20044;-75
2023/08/12 01:59:54;;;;;;;13.48;11.95;;;19.00;99.90;;;;;;5083621;28;20494;-75
2023/08/12 02:02:20;;;;;;;14.35;12.63;;;19.00;99.90;;;;;;5109937;27;20047;-74
2023/08/12 02:04:45;;;;;;;14.13;12.48;;;19.00;99.90;;;;;;5086277;28;20486;-74
2023/08/12 02:07:11;;;;;;;15.70;13.25;;;19.00;99.90;;;;;;5085841;28;20486;-75
2023/08/12 02:09:40;;;;;;;16.00;12.98;;;19.00;99.90;;;;;;5086569;28;20059;-75
2023/08/12 02:12:06;;;;;;;13.88;11.68;;;19.00;99.90;;;;;;5086663;28;20028;-75
2023/08/12 02:14:32;;;;;;;16.35;13.23;;;19.00;99.90;;;;;;5085227;28;20055;-75
2023/08/12 02:16:58;;;;;;;13.15;11.73;;;19.00;99.90;;;;;;5075405;28;20096;-75
2023/08/12 02:19:24;;;;;;;15.73;14.00;;;19.10;99.90;;;;;;5069156;28;20107;-75
2023/08/12 02:21:49;;;;;;;15.90;13.63;;;19.10;99.90;;;;;;5086579;28;20044;-75
2023/08/12 02:24:15;;;;;;;17.08;14.43;;;19.10;99.90;;;;;;5081683;28;20078;-75
2023/08/12 02:26:41;;;;;;;16.08;12.50;;;19.10;99.90;;;;;;5071096;28;20600;-75
2023/08/12 02:29:07;;;;;;;16.17;14.00;;;19.10;99.90;;;;;;5071353;28;20042;-75
2023/08/12 02:31:32;;;;;;;13.88;12.38;;;19.10;99.90;;;;;;5083829;28;20077;-75
2023/08/12 02:33:58;;;;;;;14.27;12.60;;;19.10;99.90;;;;;;5086738;28;20118;-74
2023/08/12 02:36:25;;;;;;;15.70;12.80;;;19.10;99.90;;;;;;5087030;28;20070;-75
2023/08/12 02:38:51;;;;;;;17.65;15.43;;;19.10;99.90;;;;;;5083393;28;20032;-74
2023/08/12 02:41:16;;;;;;;17.10;14.90;;;19.20;99.90;;;;;;5085524;28;20088;-75
2023/08/12 02:43:42;;;;;;;17.83;15.27;;;19.20;99.90;;;;;;5054898;28;20048;-75
2023/08/12 02:46:08;;;;;;;17.33;15.48;;;19.10;99.90;;;;;;5081052;28;20593;-75
2023/08/12 02:48:36;;;;;;;17.75;14.98;;;19.20;99.90;;;;;;5081564;28;20615;-75
2023/08/12 02:51:02;;;;;;;18.90;14.52;;;19.20;99.90;;;;;;5061685;28;20038;-75
2023/08/12 02:53:27;;;;;;;17.13;14.77;;;19.20;99.90;;;;;;5080790;28;20364;-76
2023/08/12 02:55:53;;;;;;;14.85;13.25;;;19.20;99.90;;;;;;5064004;27;21367;-76
2023/08/12 02:58:21;;;;;;;24.88;15.15;;;19.10;99.90;;;;;;5079774;28;20046;-76
2023/08/12 03:00:47;;;;;;;16.30;13.93;;;19.20;99.90;;;;;;5076438;28;20058;-75
2023/08/12 03:03:13;;;;;;;17.48;15.40;;;19.10;99.90;;;;;;5063190;28;20044;-75
2023/08/12 03:05:39;;;;;;;16.88;15.02;;;19.20;99.90;;;;;;5079078;28;20108;-76
2023/08/12 03:08:05;;;;;;;17.85;14.48;;;19.10;99.90;;;;;;5078425;28;20035;-75
2023/08/12 03:10:32;;;;;;;18.73;15.60;;;19.10;99.90;;;;;;5061916;28;20043;-75
2023/08/12 03:12:58;;;;;;;19.40;16.58;;;19.20;99.90;;;;;;5077561;28;20433;-75
2023/08/12 03:15:24;;;;;;;15.68;13.98;;;19.10;99.90;;;;;;5080429;28;20503;-75
2023/08/12 03:17:52;;;;;;;18.60;16.10;;;19.10;99.90;;;;;;5061575;28;20130;-75
2023/08/12 03:20:18;;;;;;;18.35;14.85;;;19.10;99.90;;;;;;5061456;28;20035;-75
2023/08/12 03:22:44;;;;;;;18.33;16.17;;;19.10;99.90;;;;;;5087302;28;20451;-75
2023/08/12 03:25:10;;;;;;;19.48;17.48;;;19.10;99.90;;;;;;5067775;28;20098;-75
2023/08/12 03:27:36;;;;;;;19.73;17.42;;;19.10;99.90;;;;;;5082532;28;20039;-75
2023/08/12 03:30:02;;;;;;;19.10;16.85;;;19.10;99.90;;;;;;5085683;28;20032;-74
2023/08/12 03:32:27;;;;;;;19.10;17.25;;;19.10;99.90;;;;;;5069325;28;20050;-75
2023/08/12 03:34:53;;;;;;;19.98;16.85;;;19.10;99.90;;;;;;5085207;28;20490;-75
2023/08/12 03:37:19;;;;;;;19.77;17.35;;;19.10;99.90;;;;;;5085791;28;20541;-75
2023/08/12 03:39:45;;;;;;;17.95;15.57;;;19.10;99.90;;;;;;5086210;28;20106;-75
2023/08/12 03:42:11;;;;;;;19.35;17.25;;;19.10;99.90;;;;;;5064949;28;20051;-74
2023/08/12 03:44:37;;;;;;;21.08;15.57;;;19.20;99.90;;;;;;5087265;28;20039;-75
2023/08/12 03:47:03;;;;;;;17.20;15.45;;;19.20;99.90;;;;;;5086225;27;20031;-75
2023/08/12 03:49:29;;;;;;;19.77;17.70;;;19.20;99.90;;;;;;5066594;28;20122;-75
2023/08/12 03:51:54;;;;;;;18.58;16.55;;;19.10;99.90;;;;;;5083834;28;20392;-75
2023/08/12 03:54:20;;;;;;;19.77;16.00;;;19.20;99.90;;;;;;5072069;28;20765;-75
2023/08/12 03:56:46;;;;;;;20.23;16.52;;;19.20;99.90;;;;;;5081477;28;20045;-75
2023/08/12 03:59:14;;;;;;;17.65;15.82;;;19.20;99.90;;;;;;5119075;27;20138;-75
2023/08/12 04:01:40;;;;;;;17.83;16.02;;;19.20;99.90;;;;;;5082634;28;20093;-75
2023/08/12 04:04:06;;;;;;;19.88;17.88;;;19.20;99.90;;;;;;5065851;28;20490;-75
2023/08/12 04:06:31;;;;;;;19.45;17.33;;;19.20;99.90;;;;;;5059843;28;20032;-74
2023/08/12 04:08:57;;;;;;;20.77;17.73;;;19.20;99.90;;;;;;5066187;27;20232;-75
2023/08/12 04:11:23;;;;;;;21.25;18.00;;;19.20;99.90;;;;;;5068840;28;20040;-75
2023/08/12 04:13:49;;;;;;;20.55;18.40;;;19.20;99.90;;;;;;5083768;27;20048;-75
2023/08/12 04:16:14;;;;;;;20.70;18.60;;;19.20;99.90;;;;;;5087113;28;20074;-75
2023/08/12 04:18:40;;;;;;;20.02;17.92;;;19.20;99.90;;;;;;5084377;28;20104;-76
2023/08/12 04:21:09;;;;;;;19.58;17.52;;;19.20;99.90;;;;;;5082372;28;20058;-75
2023/08/12 04:23:34;;;;;;;20.63;18.45;;;19.20;99.90;;;;;;5085719;28;20597;-76
2023/08/12 04:26:00;;;;;;;19.10;17.10;;;19.20;99.90;;;;;;5082683;28;20563;-75
2023/08/12 04:28:26;;;;;;;16.10;14.45;;;19.20;99.90;;;;;;5097722;28;20039;-76
2023/08/12 04:30:52;;;;;;;17.80;16.00;;;19.30;99.90;;;;;;5067833;27;20118;-75
2023/08/12 04:33:19;;;;;;;19.65;17.33;;;19.30;99.90;;;;;;5085018;28;20067;-75
2023/08/12 04:35:45;;;;;;;20.38;16.88;;;19.30;99.90;;;;;;5063998;28;20044;-75
2023/08/12 04:38:11;;;;;;;19.73;17.65;;;19.30;99.90;;;;;;5082686;28;20490;-75
2023/08/12 04:40:41;;;;;;;19.13;16.92;;;19.30;99.90;;;;;;5083019;28;20048;-75
2023/08/12 04:43:11;;;;;;;;;;;19.30;99.90;;;;;;5069163;28;20177;-75
2023/08/12 04:45:38;;;;;;;18.27;16.45;;;19.30;99.90;;;;;;5099279;28;19964;-76
2023/08/12 04:48:04;;;;;;;22.02;19.75;;;19.30;99.90;;;;;;5085739;28;20044;-75
2023/08/12 04:50:31;;;;;;;20.88;17.45;;;19.30;99.90;;;;;;5101245;28;20044;-75
2023/08/12 04:52:57;;;;;;;18.15;16.42;;;19.30;99.90;;;;;;5087208;28;20040;-75
2023/08/12 04:55:25;;;;;;;18.92;16.95;;;19.30;99.90;;;;;;5081736;28;20082;-75
2023/08/12 04:57:50;;;;;;;19.33;17.25;;;19.30;99.90;;;;;;5085111;28;20031;-75
2023/08/12 05:00:17;;;;;;;21.55;17.42;;;19.40;99.90;;;;;;5082820;28;20055;-74
2023/08/12 05:02:43;;;;;;;18.52;16.70;;;19.40;99.90;;;;;;5082075;28;20047;-75
2023/08/12 05:05:09;;;;;;;19.73;17.27;;;19.40;99.90;;;;;;5078029;28;20135;-75
2023/08/12 05:07:35;;;;;;;18.20;16.40;;;19.40;99.90;;;;;;5079947;28;20550;-75
2023/08/12 05:10:01;;;;;;;19.05;17.17;;;19.40;99.90;;;;;;5080453;28;20072;-75
2023/08/12 05:12:27;;;;;;;17.10;15.40;;;19.40;99.90;;;;;;5064395;28;20040;-75
2023/08/12 05:14:53;;;;;;;19.33;17.48;;;19.40;99.90;;;;;;5080013;28;20047;-76
2023/08/12 05:17:21;;;;;;;18.90;16.90;;;19.40;99.90;;;;;;5062658;28;20158;-76
2023/08/12 05:19:47;;;;;;;22.95;20.40;;;19.40;99.90;;;;;;5062471;28;20036;-76
2023/08/12 05:22:16;;;;;;;21.98;19.88;;;19.40;99.90;;;;;;5079024;28;20097;-75
2023/08/12 05:24:42;;;;;;;24.47;20.87;;;19.40;99.90;;;;;;5082184;28;20051;-75
2023/08/12 05:27:11;;;;;;;23.42;20.05;;;19.40;99.90;;;;;;5063195;28;20040;-75
2023/08/12 05:29:37;;;;;;;24.95;20.67;;;19.50;99.90;;;;;;5081246;28;20775;-76
2023/08/12 05:32:03;;;;;;;24.52;22.00;;;19.50;99.90;;;;;;5079963;28;20123;-75
2023/08/12 05:34:28;;;;;;;24.38;21.00;;;19.60;99.90;;;;;;5080733;28;20048;-75
2023/08/12 05:36:54;;;;;;;23.45;21.15;;;19.60;99.90;;;;;;5063555;28;20557;-75
2023/08/12 05:39:20;;;;;;;24.20;21.63;;;19.70;99.90;;;;;;5080024;28;20059;-75
2023/08/12 05:41:46;;;;;;;24.40;21.90;;;19.70;99.90;;;;;;5080524;28;20486;-75
2023/08/12 05:44:12;;;;;;;23.83;21.17;;;19.70;99.90;;;;;;5084783;28;20044;-75
2023/08/12 05:46:40;;;;;;;24.77;22.17;;;19.80;99.90;;;;;;5084871;28;20102;-76
2023/08/12 05:49:06;;;;;;;23.15;20.67;;;19.80;99.90;;;;;;5087639;28;20457;-75
2023/08/12 05:51:32;;;;;;;24.80;22.20;;;19.90;99.90;;;;;;5084800;28;20663;-76
2023/08/12 05:53:57;;;;;;;23.67;21.20;;;19.90;99.90;;;;;;5068834;28;20066;-75
2023/08/12 05:56:23;;;;;;;26.30;23.60;;;19.90;99.90;;;;;;5086100;28;20057;-76
2023/08/12 05:58:49;;;;;;;25.58;21.52;;;20.00;99.90;;;;;;5085163;28;20123;-75
2023/08/12 06:01:15;;;;;;;26.25;23.45;;;20.10;99.90;;;;;;5087788;27;20063;-75
2023/08/12 06:03:40;;;;;;;25.90;23.05;;;20.10;99.90;;;;;;5085417;28;20055;-75
2023/08/12 06:06:06;;;;;;;23.30;20.85;;;20.20;99.90;;;;;;5082199;28;20284;-75
2023/08/12 06:08:32;;;;;;;23.52;21.15;;;20.30;99.90;;;;;;5085515;28;20040;-75
2023/08/12 06:10:58;;;;;;;23.75;21.25;;;20.30;99.90;;;;;;5082860;28;20124;-75
2023/08/12 06:13:24;;;;;;;22.55;20.27;;;20.40;99.90;;;;;;5070376;28;20067;-75
2023/08/12 06:15:50;;;;;;;26.42;22.95;;;20.40;99.90;;;;;;5070176;28;20047;-76
2023/08/12 06:18:15;;;;;;;22.30;20.00;;;20.50;99.90;;;;;;5069882;28;20047;-76
2023/08/12 06:20:41;;;;;;;25.85;20.33;;;20.50;99.90;;;;;;5071319;28;20040;-75
2023/08/12 06:23:07;;;;;;;24.42;21.83;;;20.50;99.90;;;;;;5069097;28;20177;-75
2023/08/12 06:25:36;;;;;;;25.65;22.88;;;20.50;99.90;;;;;;5024336;28;20084;-75
2023/08/12 06:28:04;;;;;;;24.80;22.40;;;20.50;99.90;;;;;;5025527;28;20061;-75
2023/08/12 06:30:30;;;;;;;25.92;23.40;;;20.50;99.90;;;;;;5007690;28;20053;-75
2023/08/12 06:32:56;;;;;;;23.48;21.25;;;20.50;99.90;;;;;;5025685;28;20080;-75
2023/08/12 06:35:22;;;;;;;25.95;23.15;;;20.40;99.90;;;;;;5055953;28;20128;-75
2023/08/12 06:37:50;;;;;;;26.08;23.23;;;20.50;99.90;;;;;;5024498;28;20053;-76
2023/08/12 06:40:17;;;;;;;25.25;22.70;;;20.50;99.90;;;;;;5057786;28;20049;-75
2023/08/12 06:42:42;;;;;;;28.48;24.88;;;20.50;99.90;;;;;;5023458;28;20470;-75
2023/08/12 06:45:11;;;;;;;27.20;23.55;;;20.60;99.90;;;;;;5024380;28;20049;-75
2023/08/12 06:47:40;;;;;;;25.10;22.52;;;20.60;99.90;;;;;;5037934;28;20048;-76
2023/08/12 06:50:05;;;;;;;30.70;27.52;;;20.60;99.90;;;;;;5056552;28;20029;-75
2023/08/12 06:52:31;;;;;;;29.25;26.17;;;20.60;99.90;;;;;;5040398;28;20128;-76
2023/08/12 06:54:57;;;;;;;28.40;25.48;;;20.60;99.90;;;;;;5024127;28;20304;-76
2023/08/12 06:57:23;;;;;;;27.83;24.70;;;20.60;99.90;;;;;;5074533;27;20055;-76
2023/08/12 06:59:49;;;;;;;31.75;26.52;;;20.50;99.90;;;;;;5063456;28;20048;-75
2023/08/12 07:02:15;;;;;;;29.48;26.50;;;20.60;99.90;;;;;;5081388;28;20088;-76
2023/08/12 07:04:40;;;;;;;38.25;34.42;;;20.60;99.90;;;;;;5084540;28;20086;-75
2023/08/12 07:07:06;;;;;;;32.95;29.65;;;20.50;99.90;;;;;;5078936;28;20041;-75
2023/08/12 07:09:32;;;;;;;28.52;25.63;;;20.50;99.90;;;;;;5065997;28;20051;-76
2023/08/12 07:11:58;;;;;;;29.88;25.75;;;20.60;99.90;;;;;;5079912;28;20089;-75
2023/08/12 07:14:24;;;;;;;31.15;27.85;;;20.60;99.90;;;;;;5083548;28;20086;-75
2023/08/12 07:16:49;;;;;;;28.45;25.23;;;20.60;99.90;;;;;;5064521;28;20676;-76
2023/08/12 07:19:16;;;;;;;28.55;25.55;;;20.60;99.90;;;;;;5080853;28;20528;-75
2023/08/12 07:21:42;;;;;;;30.17;26.85;;;20.60;99.90;;;;;;5081104;28;20052;-75
2023/08/12 07:24:10;;;;;;;30.25;27.23;;;20.60;99.90;;;;;;5065607;28;20219;-75
2023/08/12 07:26:36;;;;;;;27.07;24.23;;;20.60;99.90;;;;;;5080002;28;20498;-76
2023/08/12 07:29:02;;;;;;;30.45;25.67;;;20.50;99.90;;;;;;5067438;28;20036;-76
2023/08/12 07:31:28;;;;;;;27.98;24.77;;;20.60;99.90;;;;;;5060916;28;20292;-75
2023/08/12 07:33:53;;;;;;;28.80;25.80;;;20.60;99.90;;;;;;5080770;28;20040;-76
2023/08/12 07:36:19;;;;;;;27.95;24.95;;;20.60;99.90;;;;;;5080657;28;20540;-75
2023/08/12 07:38:45;;;;;;;28.75;25.80;;;20.60;99.90;;;;;;5083259;28;20085;-76
2023/08/12 07:41:11;;;;;;;30.65;27.60;;;20.60;99.90;;;;;;5063543;28;20048;-75
2023/08/12 07:43:37;;;;;;;31.88;28.52;;;20.60;99.90;;;;;;5081444;28;20056;-75
2023/08/12 07:46:03;;;;;;;28.98;26.10;;;20.60;99.90;;;;;;5081525;28;20040;-75
2023/08/12 07:48:29;;;;;;;29.02;26.02;;;20.60;99.90;;;;;;5065041;28;20501;-75
2023/08/12 07:50:58;;;;;;;31.02;27.58;;;20.60;99.90;;;;;;5084644;28;20040;-75
2023/08/12 07:53:25;;;;;;;29.92;26.77;;;20.60;99.90;;;;;;5079947;28;20405;-75
2023/08/12 07:55:51;;;;;;;29.55;26.50;;;20.70;99.90;;;;;;5066597;28;20147;-75
2023/08/12 07:58:17;;;;;;;29.63;26.42;;;20.70;99.90;;;;;;5076457;28;20127;-75
2023/08/12 08:00:43;;;;;;;29.38;26.48;;;20.70;99.90;;;;;;5080749;28;20051;-75
2023/08/12 08:03:09;;;;;;;30.10;26.83;;;20.70;99.90;;;;;;5083298;28;20402;-75
2023/08/12 08:05:35;;;;;;;30.27;27.08;;;20.70;99.90;;;;;;5079511;28;20036;-75
2023/08/12 08:08:00;;;;;;;29.67;26.60;;;20.70;99.90;;;;;;5079644;28;20036;-76
2023/08/12 08:10:26;;;;;;;29.35;26.20;;;20.70;99.90;;;;;;5067166;28;20446;-75
2023/08/12 08:12:52;;;;;;;28.05;25.17;;;20.70;99.90;;;;;;5075085;28;20040;-75
2023/08/12 08:15:18;;;;;;;29.58;26.60;;;20.70;99.90;;;;;;5080990;28;20553;-75
2023/08/12 08:17:43;;;;;;;28.73;25.70;;;20.70;99.90;;;;;;5062354;28;20134;-75
2023/08/12 08:20:12;;;;;;;25.77;23.38;;;20.70;99.90;;;;;;5077556;28;20143;-75
2023/08/12 08:22:41;;;;;;;28.17;25.35;;;20.70;99.90;;;;;;5079056;28;20031;-76
2023/08/12 08:25:09;;;;;;;26.48;23.88;;;20.70;99.90;;;;;;5079793;28;20044;-76
2023/08/12 08:27:35;;;;;;;26.50;23.88;;;20.60;99.90;;;;;;5064344;28;20054;-76
2023/08/12 08:30:01;;;;;;;23.48;21.10;;;20.70;99.90;;;;;;5083613;28;20028;-76
2023/08/12 08:32:27;;;;;;;34.13;30.60;;;20.70;99.90;;;;;;5078405;28;20047;-76
2023/08/12 08:34:53;;;;;;;28.58;25.55;;;20.60;99.90;;;;;;5081506;28;20075;-77
2023/08/12 08:37:18;;;;;;;26.65;24.13;;;20.60;99.90;;;;;;5059851;28;20127;-76
2023/08/12 08:39:44;;;;;;;36.42;30.63;;;20.60;99.90;;;;;;5062235;28;20142;-76
2023/08/12 08:42:11;;;;;;;30.45;27.23;;;20.60;99.90;;;;;;5061840;28;20056;-75
2023/08/12 08:44:41;;;;;;;27.85;25.20;;;20.60;99.90;;;;;;5080753;28;20059;-75
2023/08/12 08:47:14;;;;;;;32.38;29.05;;;20.60;99.90;;;;;;5060107;28;20036;-75
2023/08/12 08:49:41;;;;;;;29.02;26.33;;;20.60;99.90;;;;;;5063951;28;20048;-75
2023/08/12 08:52:10;;;;;;;31.63;28.23;;;20.50;99.90;;;;;;5064760;28;20101;-75
2023/08/12 08:54:36;;;;;;;47.42;37.58;;;20.50;99.90;;;;;;5081221;28;20044;-74
2023/08/12 08:57:02;;;;;;;28.75;25.88;;;20.50;99.90;;;;;;5079918;28;20042;-74
2023/08/12 08:59:31;;;;;;;56.50;38.03;;;20.50;99.90;;;;;;5063674;28;20127;-74
2023/08/12 09:01:58;;;;;;;33.72;30.13;;;20.50;99.90;;;;;;5082846;28;20131;-74
2023/08/12 09:04:27;;;;;;;35.42;31.45;;;20.50;99.90;;;;;;5067538;28;20040;-75
2023/08/12 09:06:53;;;;;;;31.45;28.05;;;20.50;99.90;;;;;;5078991;28;20114;-74
2023/08/12 09:09:20;;;;;;;31.35;27.60;;;20.40;99.90;;;;;;5082380;28;20044;-75
2023/08/12 09:11:47;;;;;;;28.58;25.58;;;20.50;99.90;;;;;;5064259;28;20032;-74
2023/08/12 09:14:13;;;;;;;26.15;23.35;;;20.40;99.90;;;;;;5079930;28;20043;-75
2023/08/12 09:16:39;;;;;;;15.77;14.18;;;20.30;99.90;;;;;;5062439;28;20040;-75
2023/08/12 09:19:05;;;;;;;15.75;12.35;;;20.30;99.90;;;;;;5080433;28;20051;-75
2023/08/12 09:21:31;;;;;;;11.32;9.07;;;20.20;99.90;;;;;;5065206;28;20081;-75
2023/08/12 09:23:56;;;;;;;9.55;7.15;;;20.10;99.90;;;;;;5065485;28;20040;-76
2023/08/12 09:26:22;;;;;;;9.70;7.35;;;20.00;99.90;;;;;;5077560;28;20044;-76
2023/08/12 09:28:48;;;;;;;13.23;8.30;;;19.90;99.90;;;;;;5060043;28;20522;-76
2023/08/12 09:31:28;;;;;;;9.73;6.63;;;19.80;99.90;;;;;;5077607;28;20300;-75
2023/08/12 09:33:58;;;;;;;11.73;6.75;;;19.80;99.90;;;;;;5077955;28;20842;-75
2023/08/12 09:36:27;;;;;;;7.78;6.00;;;19.80;99.90;;;;;;5078587;28;20535;-75
2023/08/12 09:38:53;;;;;;;9.48;6.05;;;19.80;99.90;;;;;;5080725;28;20052;-75
2023/08/12 09:41:18;;;;;;;8.77;6.45;;;19.80;99.90;;;;;;5080013;28;20036;-75
2023/08/12 09:43:44;;;;;;;9.32;6.30;;;19.70;99.90;;;;;;5075930;28;20048;-75
2023/08/12 09:46:12;;;;;;;10.82;6.40;;;19.70;99.90;;;;;;5082557;28;20056;-75
2023/08/12 09:48:38;;;;;;;8.60;6.32;;;19.70;99.90;;;;;;5076122;28;20055;-75
2023/08/12 09:51:04;;;;;;;7.90;5.55;;;19.70;99.90;;;;;;5078913;28;20033;-74
2023/08/12 09:53:32;;;;;;;12.02;6.75;;;19.70;99.90;;;;;;5064289;28;20523;-74
2023/08/12 09:56:04;;;;;;;19.35;10.48;;;19.70;99.90;;;;;;5077162;28;20043;-74
2023/08/12 09:58:32;;;;;;;10.02;6.25;;;19.70;99.90;;;;;;5080816;28;20044;-74
2023/08/12 10:00:58;;;;;;;8.48;6.20;;;19.70;99.90;;;;;;5076098;28;20044;-75
2023/08/12 10:03:25;;;;;;;9.73;6.40;;;19.70;99.90;;;;;;5079740;28;20701;-74
2023/08/12 10:05:52;;;;;;;10.85;7.22;;;19.70;99.90;;;;;;5079248;28;20047;-75
2023/08/12 10:08:18;;;;;;;9.48;7.45;;;19.70;99.90;;;;;;5077263;28;20562;-74
2023/08/12 10:10:44;;;;;;;11.18;6.60;;;19.70;99.90;;;;;;5094403;28;20494;-75
2023/08/12 10:13:11;;;;;;;18.58;10.63;;;19.80;99.90;;;;;;5080003;28;20059;-75
2023/08/12 10:15:40;;;;;;;19.70;10.82;;;19.80;99.90;;;;;;5060734;28;20036;-75
2023/08/12 10:18:09;;;;;;;9.83;7.20;;;19.80;99.90;;;;;;5080100;28;20055;-75
2023/08/12 10:20:36;;;;;;;10.13;8.15;;;19.90;99.90;;;;;;5082622;28;20429;-74
2023/08/12 10:23:04;;;;;;;8.18;7.38;;;19.90;99.90;;;;;;5078972;28;20056;-74
2023/08/12 10:25:35;;;;;;;13.65;10.55;;;19.90;99.90;;;;;;5061007;28;20055;-75
2023/08/12 10:28:01;;;;;;;10.00;7.22;;;19.90;99.90;;;;;;5080406;28;20097;-75
2023/08/12 10:30:31;;;;;;;9.23;7.47;;;19.90;99.90;;;;;;5083485;28;20447;-74
2023/08/12 10:32:59;;;;;;;9.18;6.97;;;20.00;99.90;;;;;;5069042;28;20083;-75
2023/08/12 10:35:44;;;;;;;9.48;8.07;;;20.00;99.90;;;;;;5064035;28;20502;-74
2023/08/12 10:38:13;;;;;;;9.43;7.75;;;20.10;99.90;;;;;;5083870;28;20131;-75
2023/08/12 10:40:38;;;;;;;9.93;7.45;;;20.10;99.90;;;;;;5079761;28;20081;-75
2023/08/12 10:43:04;;;;;;;7.43;6.72;;;20.10;99.90;;;;;;5084949;28;20051;-75
2023/08/12 10:45:54;;;;;;;13.18;8.70;;;20.10;99.90;;;;;;5081879;28;20058;-74
2023/08/12 10:48:27;;;;;;;5.82;3.80;;;20.20;99.90;;;;;;5077443;28;20051;-74
2023/08/12 10:50:59;;;;;;;3.97;3.13;;;20.20;99.90;;;;;;5079331;28;20097;-74
2023/08/12 10:53:29;;;;;;;6.80;3.55;;;20.10;99.90;;;;;;5083778;28;20130;-74
2023/08/12 10:56:02;;;;;;;5.35;3.80;;;20.10;99.90;;;;;;5083024;28;20055;-75
2023/08/12 10:58:30;;;;;;;6.15;3.85;;;20.10;99.90;;;;;;5083444;28;20047;-74
2023/08/12 11:00:57;;;;;;;3.70;2.40;;;20.10;99.90;;;;;;5083295;28;20048;-74
2023/08/12 11:03:23;;;;;;;2.50;2.10;;;20.10;99.90;;;;;;5083880;28;20486;-74
2023/08/12 11:05:50;;;;;;;3.53;1.98;;;20.10;99.90;;;;;;5081827;28;20133;-74
2023/08/12 11:08:17;;;;;;;3.13;2.08;;;20.00;99.90;;;;;;5057385;28;20044;-74
2023/08/12 11:10:54;;;;;;;62.17;57.75;;;20.10;99.90;;;;;;5064990;28;20490;-74
2023/08/12 11:13:19;;;;;;;4.95;4.45;;;20.00;99.90;;;;;;5078694;28;20045;-74
2023/08/12 11:15:47;;;;;;;2.72;2.05;;;20.10;99.90;;;;;;5082157;28;20055;-74
2023/08/12 11:18:18;;;;;;;2.22;1.45;;;20.10;99.90;;;;;;5080991;28;20047;-75
2023/08/12 11:20:45;;;;;;;4.30;1.88;;;20.10;99.90;;;;;;5082067;28;20048;-75
2023/08/12 11:23:11;;;;;;;2.20;1.65;;;20.10;99.90;;;;;;5083397;28;20494;-75
2023/08/12 11:25:38;;;;;;;2.13;1.60;;;20.10;99.90;;;;;;5079423;28;20378;-75
2023/08/12 11:28:08;;;;;;;2.50;1.70;;;20.10;99.90;;;;;;5077313;28;20059;-75
2023/08/12 11:30:34;;;;;;;2.63;1.98;;;20.20;99.90;;;;;;5073656;28;20803;-75
2023/08/12 11:33:01;;;;;;;3.28;1.75;;;20.20;99.90;;;;;;5076975;28;20102;-75
2023/08/12 11:35:28;;;;;;;2.47;1.83;;;20.20;99.90;;;;;;5072452;28;20047;-74
2023/08/12 11:37:56;;;;;;;2.20;1.60;;;20.20;99.90;;;;;;5059610;28;20564;-74
2023/08/12 11:40:26;;;;;;;2.55;1.85;;;20.20;99.90;;;;;;5060180;28;20032;-75
2023/08/12 11:42:53;;;;;;;2.45;1.75;;;20.20;99.90;;;;;;5082134;28;20054;-75
2023/08/12 11:45:21;;;;;;;2.55;1.92;;;20.30;99.90;;;;;;5065414;28;20043;-75
2023/08/12 11:47:52;;;;;;;3.00;2.20;;;20.40;99.90;;;;;;5082227;28;20062;-75
2023/08/12 11:50:19;;;;;;;3.13;2.25;;;20.50;99.90;;;;;;5081796;28;20040;-74
2023/08/12 11:52:46;;;;;;;3.35;2.80;;;20.60;99.90;;;;;;5081820;28;20517;-74
2023/08/12 11:55:14;;;;;;;3.40;2.60;;;20.70;99.90;;;;;;5081668;28;20048;-75
2023/08/12 11:57:41;;;;;;;3.55;2.90;;;20.70;99.90;;;;;;5083504;28;20117;-74
2023/08/12 12:00:13;;;;;;;3.88;3.03;;;20.80;99.90;;;;;;5063426;28;20161;-74
2023/08/12 12:02:48;;;;;;;3.53;2.75;;;20.80;99.90;;;;;;5069656;28;20036;-74
2023/08/12 12:05:15;;;;;;;3.67;2.20;;;20.80;99.90;;;;;;5060862;28;20486;-73
2023/08/12 12:07:41;;;;;;;2.15;1.05;;;20.70;99.90;;;;;;5064691;28;20051;-73
2023/08/12 12:10:12;;;;;;;3.00;1.30;;;20.60;99.90;;;;;;5047031;28;20052;-73
2023/08/12 12:12:41;;;;;;;3.55;2.10;;;20.60;99.90;;;;;;5079726;28;20044;-73
2023/08/12 12:15:12;;;;;;;5.50;2.85;;;20.60;99.90;;;;;;5062549;28;20082;-74
2023/08/12 12:17:41;;;;;;;3.38;2.60;;;20.60;99.90;;;;;;5061344;28;20044;-74
2023/08/12 12:20:11;;;;;;;4.35;2.88;;;20.70;99.90;;;;;;5065024;28;20135;-73
2023/08/12 12:22:40;;;;;;;;;;;20.70;99.90;;;;;;5064907;28;20041;-73
2023/08/12 12:25:07;;;;;;;4.07;2.77;;;20.70;99.90;;;;;;5065274;28;20371;-73
2023/08/12 12:27:33;;;;;;;5.47;3.00;;;20.80;99.90;;;;;;5060746;28;20080;-72
2023/08/12 12:30:00;;;;;;;6.45;2.42;;;20.90;99.90;;;;;;5057157;28;20347;-74
2023/08/12 12:32:26;;;;;;;7.57;2.50;;;21.00;99.90;;;;;;5057814;28;20041;-73